Latest Weather Observations for Mount Gellibrand

IDV60801

Issued at 7:12 pm EDT Thursday 17 October 2019 (issued every 10 minutes, with the page automatically refreshed every 10 minutes)

About weather observations | Map of weather stations | Latest weather observations for VIC | Other Formats
Station Details ID: 090035 Name: MOUNT GELLIBRAND Lat: -38.23 Lon: 143.79 Height: 261.0 m
Data from the previous 72 hours. | See also: Recent months at Mount Gellibrand
Date/Time
EDT
Temp
°C
App
Temp
°C
Dew
Point
°C
Rel
Hum
%
Delta-T
°C
Wind Press
QNH
hPa
Press
MSL
hPa
Rain since
9am
mm
Dir  Spd
km/h
Gust
km/h
Spd
kts
Gust
kts
17/07:00pm 10.0 1.8 8.1 88 0.9 WSW 41 48 22 26 1013.1 1013.0 3.4
17/06:30pm 10.3 1.5 7.4 82 1.4 WSW 43 54 23 29 1012.4 1012.3 3.4
17/06:00pm 10.2 0.5 7.6 84 1.3 WSW 48 61 26 33 1011.7 1011.7 3.4
17/05:30pm 10.6 1.5 8.5 87 1.0 WSW 46 56 25 30 1011.3 1011.3 3.4
17/05:00pm 10.9 2.6 10.0 94 0.5 WSW 44 65 24 35 1011.0 1011.0 3.4
17/04:52pm 10.7 3.5 10.7 100 0.0 WSW 39 59 21 32 1010.8 1010.8 3.4
17/04:30pm 10.4 3.9 10.4 100 0.0 SW 35 44 19 24 1010.7 1010.6 3.4
17/04:00pm 9.9 1.6 9.9 100 0.0 WSW 44 61 24 33 1010.2 1010.1 3.4
17/03:30pm 12.1 3.5 8.9 81 1.6 WSW 44 63 24 34 1009.3 1009.2 3.2
17/03:00pm 12.2 3.2 8.9 80 1.7 WSW 46 59 25 32 1009.3 1009.2 3.2
17/02:30pm 11.0 4.7 11.0 100 0.0 WSW 35 46 19 25 1009.4 1009.3 3.2
17/02:00pm 10.7 4.9 10.7 100 0.0 W 32 41 17 22 1009.3 1009.2 3.2
17/01:30pm 8.8 1.9 8.8 100 0.0 WNW 35 46 19 25 1009.2 1009.1 3.2
17/01:00pm 7.8 -0.9 7.8 100 0.0 WNW 43 57 23 31 1008.8 1008.7 3.0
17/12:30pm 8.5 -1.3 8.5 100 0.0 WNW 50 63 27 34 1008.4 1008.3 2.4
17/12:00pm 7.1 -3.5 7.1 100 0.0 WNW 52 63 28 34 1008.3 1008.2 2.0
17/11:31am 7.3 -1.5 7.3 100 0.0 WNW 43 61 23 33 1008.4 1008.3 1.2
17/11:30am 7.5 -0.9 7.5 100 0.0 WNW 41 56 22 30 1008.5 1008.4 1.2
17/11:00am 7.9 -0.8 7.9 100 0.0 W 43 56 23 30 1008.5 1008.4 0.8
17/10:30am 8.4 -1.8 8.4 100 0.0 WNW 52 61 28 33 1008.1 1008.0 0.6
17/10:00am 8.0 -0.8 8.0 100 0.0 W 44 56 24 30 1008.1 1008.0 0.6
17/09:30am 6.8 -1.7 6.8 100 0.0 WNW 41 50 22 27 1007.7 1007.7 0.6
17/09:00am 6.9 -2.6 6.9 100 0.0 WNW 46 59 25 32 1007.2 1007.1 10.0
17/08:30am 6.8 -3.4 6.8 100 0.0 WNW 50 65 27 35 1006.9 1006.8 9.6
17/08:21am 6.6 -2.9 6.6 100 0.0 WNW 46 65 25 35 1006.7 1006.6 9.6
17/08:00am 5.9 -2.8 5.9 100 0.0 WNW 41 52 22 28 1006.6 1006.5 9.6
17/07:30am 5.7 -2.7 5.7 100 0.0 WNW 39 50 21 27 1006.6 1006.5 9.4
17/07:00am 5.7 -3.6 5.7 100 0.0 WNW 44 54 24 29 1005.9 1005.8 7.6
17/06:30am 5.8 -3.9 5.8 100 0.0 WNW 46 61 25 33 1005.1 1005.0 7.6
17/06:00am 6.0 -3.1 6.0 100 0.0 NW 43 54 23 29 1004.9 1004.8 7.6
17/05:30am 6.0 -3.3 6.0 100 0.0 WNW 44 54 24 29 1005.2 1005.1 7.6
17/05:00am 6.3 -2.3 6.3 100 0.0 WNW 41 50 22 27 1005.2 1005.1 7.6
17/04:30am 6.5 -2.1 6.5 100 0.0 WNW 41 50 22 27 1005.2 1005.1 7.6
17/04:00am 6.9 -0.1 6.9 100 0.0 NW 33 39 18 21 1005.9 1005.8 7.6
17/03:30am 7.4 -0.2 7.4 100 0.0 NW 37 44 20 24 1006.2 1006.1 7.6
17/03:00am 7.3 2.1 7.3 100 0.0 NW 24 30 13 16 1006.4 1006.3 7.6
17/02:30am 7.3 0.6 7.3 100 0.0 NW 32 41 17 22 1006.4 1006.3 7.6
17/02:00am 6.8 -0.6 6.8 100 0.0 NW 35 44 19 24 1006.8 1006.7 7.0
17/01:38am 7.5 1.6 7.5 100 0.0 NNW 28 54 15 29 1007.1 1007.0 4.0
17/01:30am 8.3 3.7 8.3 100 0.0 N 22 26 12 14 1006.6 1006.5 3.6
17/01:00am 8.7 4.8 8.7 100 0.0 N 19 22 10 12 1007.0 1006.9 3.6
17/12:30am 8.8 5.3 8.8 100 0.0 NNE 17 19 9 10 1007.4 1007.3 3.6
17/12:00am 8.8 5.7 8.8 100 0.0 NNE 15 19 8 10 1008.0 1007.9 3.6
 
Date/Time
EDT
Temp
°C
App
Temp
°C
Dew
Point
°C
Rel
Hum
%
Delta-T
°C
Wind Press
QNH
hPa
Press
MSL
hPa
Rain since
9am
mm
Dir  Spd
km/h
Gust
km/h
Spd
kts
Gust
kts
16/11:30pm 9.0 7.1 9.0 100 0.0 NNE 9 13 5 7 1008.5 1008.4 3.6
16/11:00pm 10.0 8.6 8.8 92 0.6 WSW 6 6 3 3 1009.1 1009.0 3.6
16/10:30pm 9.6 7.9 8.5 93 0.5 SW 7 9 4 5 1009.1 1009.0 3.6
16/10:00pm 9.7 7.9 7.8 88 0.9 SW 7 9 4 5 1009.1 1009.0 3.6
16/09:30pm 9.3 7.2 8.4 94 0.4 SW 9 13 5 7 1009.1 1009.0 3.6
16/09:00pm 9.6 7.4 9.3 98 0.2 SW 11 13 6 7 1009.1 1009.0 3.6
16/08:30pm 10.1 6.4 9.6 97 0.3 SW 19 24 10 13 1008.8 1008.7 3.6
16/08:00pm 10.7 6.5 9.8 94 0.5 SW 22 28 12 15 1008.6 1008.5 3.6
16/07:30pm 11.3 7.2 10.0 92 0.7 SW 22 30 12 16 1008.5 1008.4 3.6
16/07:00pm 12.0 8.8 11.2 95 0.4 SW 19 26 10 14 1008.5 1008.4 3.6
16/06:30pm 12.6 9.4 11.2 91 0.7 SW 19 24 10 13 1008.0 1007.9 3.6
16/06:00pm 12.6 9.2 12.6 100 0.0 SW 22 28 12 15 1007.9 1007.8 3.6
16/05:35pm 12.0 7.6 11.7 98 0.2 WSW 26 61 14 33 1007.9 1007.8 3.0
16/05:34pm 12.1 7.5 11.2 94 0.5 WSW 26 61 14 33 1007.6 1007.6 2.2
16/05:30pm 13.6 10.7 11.0 84 1.4 WSW 17 26 9 14 1007.5 1007.4 0.8
16/05:00pm 15.7 13.2 12.3 80 1.9 WSW 17 22 9 12 1007.3 1007.2 0.8
16/04:30pm 14.8 11.8 12.7 87 1.2 WSW 20 28 11 15 1007.5 1007.4 0.8
16/04:00pm 14.7 11.1 12.9 89 1.0 WSW 24 32 13 17 1007.5 1007.4 0.8
16/03:30pm 16.0 11.7 13.3 84 1.5 W 28 37 15 20 1007.7 1007.7 0.8
16/03:00pm 15.0 10.7 13.2 89 1.0 WSW 28 43 15 23 1008.0 1007.9 0.8
16/02:30pm 16.4 12.0 14.2 87 1.3 W 30 39 16 21 1008.2 1008.1 0.8
16/02:00pm 14.8 10.1 13.2 90 0.9 W 30 37 16 20 1008.6 1008.5 0.8
16/01:30pm 13.7 8.2 13.7 100 0.0 W 35 43 19 23 1008.6 1008.5 0.8
16/01:00pm 13.6 8.7 13.6 100 0.0 W 32 41 17 22 1008.6 1008.5 0.8
16/12:30pm 14.4 10.2 13.4 94 0.6 NW 28 39 15 21 1008.8 1008.7 0.0
16/12:00pm 15.3 12.9 15.3 100 0.0 NW 22 32 12 17 1009.0 1008.9 0.0
16/11:30am 13.8 10.8 13.8 100 0.0 NNW 22 28 12 15 1009.4 1009.3 0.0
16/11:00am 13.1 11.2 13.1 100 0.0 NNW 15 20 8 11 1009.8 1009.7 0.0
16/10:30am 11.9 10.8 11.9 100 0.0 NNE 9 15 5 8 1010.0 1009.9 0.0
16/10:00am 11.0 8.5 11.0 100 0.0 NE 15 17 8 9 1010.1 1010.0 0.0
16/09:30am 10.8 8.2 10.8 100 0.0 NE 15 17 8 9 1010.2 1010.1 0.0
16/09:00am 10.4 7.7 10.4 100 0.0 NE 15 24 8 13 1010.8 1010.8 3.2
16/08:30am 10.5 7.1 10.5 100 0.0 NE 19 24 10 13 1010.5 1010.4 2.0
16/08:00am 10.3 6.3 10.3 100 0.0 ENE 22 24 12 13 1010.1 1010.0 2.0
16/07:30am 10.2 7.5 10.2 100 0.0 ENE 15 19 8 10 1010.7 1010.6 2.0
16/07:00am 10.1 6.6 10.1 100 0.0 ENE 19 20 10 11 1010.5 1010.4 2.0
16/06:30am 10.0 6.8 10.0 100 0.0 ENE 17 20 9 11 1010.9 1010.9 2.0
16/06:00am 9.9 7.5 9.9 100 0.0 ENE 13 17 7 9 1010.8 1010.8 2.0
16/05:30am 10.0 8.0 10.0 100 0.0 ENE 11 13 6 7 1011.2 1011.2 2.0
16/05:00am 9.8 7.7 9.8 100 0.0 E 11 13 6 7 1010.8 1010.8 2.0
16/04:30am 10.0 8.0 10.0 100 0.0 ESE 11 13 6 7 1010.9 1010.9 2.0
16/04:00am 9.9 7.8 9.9 100 0.0 E 11 15 6 8 1010.9 1010.9 2.0
16/03:30am 10.2 8.2 10.2 100 0.0 E 11 13 6 7 1011.6 1011.6 2.0
16/03:00am 10.2 9.0 10.2 100 0.0 ENE 7 9 4 5 1012.7 1012.6 2.0
16/02:30am 10.4 8.5 10.4 100 0.0 NE 11 13 6 7 1012.6 1012.5 2.0
16/02:00am 10.4 9.2 10.4 100 0.0 ENE 7 9 4 5 1013.1 1013.0 2.0
16/01:30am 10.4 8.9 10.4 100 0.0 NE 9 11 5 6 1013.2 1013.1 2.0
16/01:00am 10.5 8.6 10.5 100 0.0 NNE 11 15 6 8 1013.5 1013.4 2.0
16/12:30am 10.6 9.1 10.6 100 0.0 ENE 9 11 5 6 1013.7 1013.6 2.0
16/12:00am 10.5 9.0 10.5 100 0.0 ENE 9 11 5 6 1013.6 1013.5 2.0
 
Date/Time
EDT
Temp
°C
App
Temp
°C
Dew
Point
°C
Rel
Hum
%
Delta-T
°C
Wind Press
QNH
hPa
Press
MSL
hPa
Rain since
9am
mm
Dir  Spd
km/h
Gust
km/h
Spd
kts
Gust
kts
15/11:30pm 10.3 9.3 10.3 100 0.0 SSW 6 7 3 4 1014.1 1014.1 2.0
15/11:00pm 10.3 9.3 10.3 100 0.0 SSW 6 7 3 4 1014.0 1013.9 2.0
15/10:30pm 10.2 9.5 10.2 100 0.0 SSW 4 6 2 3 1014.3 1014.3 2.0
15/10:00pm 10.4 9.4 10.4 100 0.0 SSW 6 6 3 3 1014.3 1014.3 2.0
15/09:30pm 10.8 10.3 10.8 100 0.0 SSW 4 4 2 2 1014.7 1014.7 2.0
15/09:00pm 10.6 9.7 10.6 100 0.0 SSW 6 7 3 4 1014.6 1014.6 2.0
15/08:30pm 11.1 9.8 11.1 100 0.0 SW 9 11 5 6 1014.3 1014.3 2.0
15/08:00pm 11.1 9.4 11.1 100 0.0 SW 11 15 6 8 1014.2 1014.2 2.0
15/07:30pm 11.1 7.9 11.1 100 0.0 SW 19 22 10 12 1013.8 1013.7 1.8
15/07:00pm 11.3 7.9 11.3 100 0.0 SW 20 30 11 16 1013.9 1013.8 0.8
15/06:30pm 13.7 12.2 11.9 89 1.0 SW 11 15 6 8 1013.0 1012.9 0.0
15/06:00pm 14.4 12.5 11.7 84 1.5 WSW 13 15 7 8 1013.3 1013.2 0.0
15/05:30pm 15.0 13.9 11.8 81 1.7 WSW 9 13 5 7 1013.1 1013.0 0.0
15/05:00pm 16.1 14.7 12.1 77 2.2 WSW 11 19 6 10 1013.0 1012.9 0.0
15/04:30pm 16.1 14.2 11.9 76 2.3 WSW 13 19 7 10 1012.6 1012.5 0.0
15/04:00pm 15.4 12.6 12.5 83 1.6 WSW 19 24 10 13 1013.1 1013.0 0.0
15/03:30pm 15.4 12.4 12.0 80 1.9 WSW 19 24 10 13 1013.1 1013.0 0.0
15/03:00pm 16.0 12.9 12.2 78 2.1 W 20 26 11 14 1013.4 1013.3 0.0
15/02:30pm 15.4 12.4 10.6 73 2.6 W 17 22 9 12 1013.7 1013.6 0.0
15/02:00pm 15.4 13.6 11.0 75 2.4 WNW 11 19 6 10 1013.8 1013.7 0.0
15/01:30pm 14.9 12.1 11.5 80 1.8 W 17 24 9 13 1014.0 1013.9 0.0
15/01:00pm 13.9 12.7 11.6 86 1.2 WSW 9 15 5 8 1014.2 1014.2 0.0
15/12:30pm 13.8 13.0 11.7 87 1.1 WNW 7 11 4 6 1014.3 1014.3 0.0
15/12:00pm 12.6 12.0 10.5 87 1.1 WNW 4 7 2 4 1014.2 1014.2 0.0
15/11:30am 11.8 11.2 10.4 91 0.7 SSW 4 6 2 3 1014.8 1014.8 0.0
15/11:00am 11.6 10.7 10.8 95 0.4 S 6 7 3 4 1015.0 1015.0 0.0
15/10:30am 11.1 10.0 10.5 96 0.3 SSW 7 13 4 7 1014.9 1014.9 0.0
15/10:00am 10.9 9.9 10.3 96 0.3 SSE 6 9 3 5 1014.8 1014.8 0.0
15/09:30am 10.6 9.0 10.1 97 0.3 SSE 9 13 5 7 1014.8 1014.8 0.0
15/09:00am 10.2 8.4 9.4 95 0.4 SSE 9 15 5 8 1014.9 1014.9 0.0
15/08:30am 9.9 8.1 9.3 96 0.3 S 9 13 5 7 1014.8 1014.8 0.0
15/08:00am 9.4 6.8 9.4 100 0.0 SSW 13 20 7 11 1014.7 1014.7 0.0
15/07:30am 8.1 6.0 8.1 100 0.0 SSW 9 11 5 6 1014.6 1014.6 0.0
15/07:00am 7.4 5.1 7.4 100 0.0 SSW 9 11 5 6 1014.3 1014.3 0.0
15/06:30am 7.4 4.7 7.4 100 0.0 SSW 11 13 6 7 1014.2 1014.2 0.0
15/06:00am 8.4 5.6 8.4 100 0.0 SW 13 17 7 9 1014.2 1014.2 0.0
15/05:30am 8.9 6.2 8.9 100 0.0 SW 13 17 7 9 1014.2 1014.2 0.0
15/05:00am 9.2 7.3 9.2 100 0.0 SW 9 13 5 7 1014.2 1014.2 0.0
15/04:30am 9.5 7.3 9.5 100 0.0 SW 11 17 6 9 1014.3 1014.3 0.0
15/04:00am 9.3 7.5 9.3 100 0.0 SW 9 13 5 7 1014.3 1014.3 0.0
15/03:30am 9.4 7.2 9.4 100 0.0 SW 11 13 6 7 1014.5 1014.5 0.0
15/03:00am 9.2 6.6 9.2 100 0.0 SSW 13 19 7 10 1014.8 1014.8 0.0
15/02:30am 8.5 6.5 8.5 100 0.0 WSW 9 11 5 6 1014.8 1014.8 0.0
15/02:00am 8.5 5.7 8.5 100 0.0 SW 13 17 7 9 1015.1 1015.1 0.0
15/01:30am 8.9 6.2 8.9 100 0.0 SW 13 17 7 9 1015.2 1015.2 0.0
15/01:00am 8.8 6.1 8.8 100 0.0 WSW 13 15 7 8 1015.5 1015.5 0.0
15/12:30am 8.9 5.1 8.9 100 0.0 SW 19 20 10 11 1015.4 1015.4 0.0
15/12:00am 9.0 5.6 9.0 100 0.0 SW 17 20 9 11 1015.2 1015.2 0.0
 
Date/Time
EDT
Temp
°C
App
Temp
°C
Dew
Point
°C
Rel
Hum
%
Delta-T
°C
Wind Press
QNH
hPa
Press
MSL
hPa
Rain since
9am
mm
Dir  Spd
km/h
Gust
km/h
Spd
kts
Gust
kts
14/11:30pm 9.0 5.2 9.0 100 0.0 SW 19 22 10 12 1015.2 1015.2 0.0
14/11:00pm 9.2 4.9 9.2 100 0.0 WSW 22 24 12 13 1015.1 1015.1 0.0
14/10:30pm 9.7 5.5 9.7 100 0.0 WSW 22 28 12 15 1015.0 1015.0 0.0
14/10:00pm 10.3 5.1 10.3 100 0.0 WSW 28 35 15 19 1014.9 1014.9 0.0
14/09:30pm 11.2 5.8 11.0 99 0.1 SW 30 35 16 19 1014.5 1014.5 0.0
14/09:00pm 11.7 7.2 11.5 99 0.1 SW 26 32 14 17 1014.4 1014.4 0.0
14/08:30pm 12.1 7.8 12.1 100 0.0 SW 26 35 14 19 1014.2 1014.2 0.0
14/08:00pm 12.5 8.7 12.5 100 0.0 SW 24 33 13 18 1013.6 1013.5 0.0
14/07:30pm 12.7 8.2 12.7 100 0.0 SW 28 39 15 21 1013.4 1013.3 0.0

Other formats

Comma delimited format used in spreadsheet applications
http://www.bom.gov.au/fwo/IDV60801/IDV60801.95845.axf

JavaScript Object Notation format (JSON) in row-major order
http://www.bom.gov.au/fwo/IDV60801/IDV60801.95845.json

Data quality

Most of these data are generated automatically and are frequently updated. Quality checks on data are not normally performed. It is possible for incorrect values to appear. Refer to information at About Latest Weather Observations and please check the disclaimer before using these data.